createdAt,value
2024-01-21T00:01:33.995Z,5.70
2024-01-21T00:04:36.429Z,4.55
2024-01-21T00:07:40.566Z,6.85
2024-01-21T00:10:43.083Z,4.65
2024-01-21T00:13:45.581Z,5.10
2024-01-21T00:16:48.250Z,7.30
2024-01-21T00:19:50.577Z,4.70
2024-01-21T00:22:53.003Z,6.13
2024-01-21T00:25:55.591Z,5.88
2024-01-21T00:29:02.122Z,5.38
2024-01-21T00:32:04.641Z,5.50
2024-01-21T00:35:07.572Z,6.30
2024-01-21T00:38:10.590Z,3.50
2024-01-21T00:41:16.478Z,4.53
2024-01-21T00:44:20.107Z,5.43
2024-01-21T00:47:23.371Z,3.05
2024-01-21T00:50:25.939Z,3.30
2024-01-21T00:53:28.613Z,2.07
2024-01-21T00:56:30.933Z,2.20
2024-01-21T00:59:33.176Z,4.60
2024-01-21T01:02:35.587Z,2.70
2024-01-21T01:05:38.140Z,4.10
2024-01-21T01:08:40.642Z,2.78
2024-01-21T01:11:43.232Z,2.95
2024-01-21T01:14:45.699Z,3.53
2024-01-21T01:17:48.872Z,3.95
2024-01-21T01:20:51.469Z,4.20
2024-01-21T01:23:53.906Z,3.40
2024-01-21T01:26:56.136Z,2.80
2024-01-21T01:29:58.466Z,3.80
2024-01-21T01:33:00.871Z,3.97
2024-01-21T01:36:03.823Z,3.13
2024-01-21T01:39:08.544Z,2.95
2024-01-21T01:42:10.888Z,2.75
2024-01-21T01:45:13.167Z,2.67
2024-01-21T01:48:15.845Z,3.40
2024-01-21T01:51:18.664Z,3.17
2024-01-21T01:54:24.395Z,2.83
2024-01-21T01:57:26.835Z,2.38
2024-01-21T02:00:30.526Z,2.40
2024-01-21T02:03:33.517Z,3.85
2024-01-21T02:06:36.118Z,1.95
2024-01-21T02:09:38.666Z,2.33
2024-01-21T02:12:44.921Z,2.35
2024-01-21T02:15:47.174Z,2.63
2024-01-21T02:18:51.607Z,1.42
2024-01-21T02:21:55.413Z,2.83
2024-01-21T02:24:57.663Z,2.70
2024-01-21T02:27:59.883Z,3.75
2024-01-21T02:31:02.078Z,1.98
2024-01-21T02:34:04.626Z,2.67
2024-01-21T02:37:07.033Z,3.03
2024-01-21T02:40:09.924Z,2.72
2024-01-21T02:43:12.125Z,3.03
2024-01-21T02:46:17.521Z,2.63
2024-01-21T02:49:20.186Z,2.10
2024-01-21T02:52:22.492Z,2.78
2024-01-21T02:55:24.709Z,2.23
2024-01-21T02:58:26.931Z,2.80
2024-01-21T03:01:29.126Z,1.67
2024-01-21T03:04:31.310Z,2.17
2024-01-21T03:07:33.484Z,2.58
2024-01-21T03:10:35.762Z,2.05
2024-01-21T03:13:37.941Z,4.07
2024-01-21T03:16:40.051Z,1.93
2024-01-21T03:19:42.266Z,2.78
2024-01-21T03:22:44.354Z,0.80
2024-01-21T03:25:46.817Z,2.57
2024-01-21T03:28:49.274Z,2.42
2024-01-21T03:31:51.365Z,3.35
2024-01-21T03:34:53.657Z,2.20
2024-01-21T03:37:55.808Z,3.20
2024-01-21T03:40:57.878Z,4.47
2024-01-21T03:44:00.092Z,2.20
2024-01-21T03:47:02.204Z,2.67
2024-01-21T03:50:05.919Z,4.45
2024-01-21T03:53:08.824Z,4.65
2024-01-21T03:56:19.272Z,6.60
2024-01-21T03:59:21.482Z,3.67
2024-01-21T04:02:25.270Z,4.45
2024-01-21T04:05:27.399Z,7.20
2024-01-21T04:08:29.553Z,5.95
2024-01-21T04:11:31.633Z,6.18
2024-01-21T04:14:33.883Z,5.78
2024-01-21T04:17:36.307Z,5.67
2024-01-21T04:20:38.638Z,5.30
2024-01-21T04:23:41.584Z,3.70
2024-01-21T04:26:43.867Z,3.33
2024-01-21T04:29:46.407Z,2.30
2024-01-21T04:32:49.241Z,1.83
2024-01-21T04:35:52.635Z,3.45
2024-01-21T04:38:55.177Z,1.00
2024-01-21T04:41:57.411Z,3.25
2024-01-21T04:44:59.705Z,3.00
2024-01-21T04:48:02.035Z,4.03
2024-01-21T04:51:04.538Z,2.55
2024-01-21T04:54:06.748Z,2.90
2024-01-21T04:57:08.968Z,3.37
2024-01-21T05:00:11.858Z,2.55
2024-01-21T05:03:14.111Z,2.05
2024-01-21T05:06:16.351Z,4.05
2024-01-21T05:09:18.564Z,2.60
2024-01-21T05:12:20.848Z,2.72
2024-01-21T05:15:23.245Z,3.08
2024-01-21T05:18:25.817Z,2.17
2024-01-21T05:21:28.104Z,3.78
2024-01-21T05:24:30.428Z,2.75
2024-01-21T05:27:33.393Z,2.87
2024-01-21T05:30:35.817Z,1.73
2024-01-21T05:33:39.566Z,2.75
2024-01-21T05:36:43.517Z,3.25
2024-01-21T05:39:45.927Z,2.15
2024-01-21T05:42:48.414Z,2.67
2024-01-21T05:45:50.587Z,2.85
2024-01-21T05:48:52.976Z,3.53
2024-01-21T05:51:55.222Z,2.92
2024-01-21T05:54:57.576Z,3.60
2024-01-21T05:58:00.341Z,3.60
2024-01-21T06:01:03.134Z,2.70
2024-01-21T06:04:05.371Z,1.83
2024-01-21T06:07:08.577Z,2.15
2024-01-21T06:10:11.392Z,2.80
2024-01-21T06:13:13.617Z,3.55
2024-01-21T06:16:19.014Z,2.13
2024-01-21T06:19:21.253Z,3.23
2024-01-21T06:22:23.504Z,2.30
2024-01-21T06:25:25.673Z,3.45
2024-01-21T06:28:27.890Z,4.47
2024-01-21T06:31:30.300Z,3.83
2024-01-21T06:34:32.790Z,3.70
2024-01-21T06:37:35.268Z,2.40
2024-01-21T06:40:37.588Z,2.47
2024-01-21T06:43:39.886Z,2.50
2024-01-21T06:46:42.340Z,3.53
2024-01-21T06:49:44.641Z,5.40
2024-01-21T06:52:47.176Z,3.63
2024-01-21T06:55:49.345Z,5.38
2024-01-21T06:58:51.479Z,2.90
2024-01-21T07:01:54.025Z,2.72
2024-01-21T07:04:56.612Z,3.58
2024-01-21T07:07:59.225Z,2.22
2024-01-21T07:11:01.511Z,4.07
2024-01-21T07:14:05.097Z,2.80
2024-01-21T07:17:07.586Z,2.67
2024-01-21T07:20:13.512Z,5.80
2024-01-21T07:23:16.293Z,5.68
2024-01-21T07:26:20.449Z,5.78
2024-01-21T07:29:22.869Z,8.67
2024-01-21T07:32:25.080Z,8.27
2024-01-21T07:35:27.351Z,10.07
2024-01-21T07:38:29.527Z,11.80
2024-01-21T07:41:32.616Z,9.68
2024-01-21T07:44:34.838Z,10.25
2024-01-21T07:47:37.091Z,6.55
2024-01-21T07:50:39.422Z,4.70
2024-01-21T07:53:41.927Z,2.95
2024-01-21T07:56:44.193Z,2.88
2024-01-21T08:00:04.894Z,3.33
2024-01-21T08:03:07.985Z,2.25
2024-01-21T08:06:11.054Z,2.40
2024-01-21T08:09:14.047Z,2.05
2024-01-21T08:12:18.750Z,2.42
2024-01-21T08:15:21.202Z,1.90
2024-01-21T08:18:24.972Z,3.08
2024-01-21T08:21:27.502Z,2.97
2024-01-21T08:24:30.124Z,1.42
2024-01-21T08:27:32.552Z,2.17
2024-01-21T08:30:34.821Z,2.40
2024-01-21T08:33:37.592Z,1.30
2024-01-21T08:36:40.230Z,2.67
2024-01-21T08:39:45.499Z,2.40
2024-01-21T08:42:49.863Z,2.10
2024-01-21T08:45:52.309Z,2.90
2024-01-21T08:48:56.007Z,2.63
2024-01-21T08:51:59.241Z,3.43
2024-01-21T08:55:01.552Z,3.28
2024-01-21T08:58:04.091Z,2.80
2024-01-21T09:01:06.786Z,4.20
2024-01-21T09:04:10.628Z,4.40
2024-01-21T09:07:13.729Z,2.80
2024-01-21T09:10:19.528Z,3.20
2024-01-21T09:13:21.650Z,2.92
2024-01-21T09:16:24.617Z,2.17
2024-01-21T09:19:26.914Z,2.22
2024-01-21T09:22:29.797Z,2.77
2024-01-21T09:25:32.588Z,4.47
2024-01-21T09:28:37.952Z,4.95
2024-01-21T09:31:41.558Z,4.27
2024-01-21T09:34:44.997Z,4.65
2024-01-21T09:37:47.797Z,3.55
2024-01-21T09:41:09.208Z,5.53
2024-01-21T09:44:12.134Z,3.67
2024-01-21T09:47:15.581Z,4.55
2024-01-21T09:50:21.168Z,4.18
2024-01-21T09:53:23.855Z,5.40
2024-01-21T09:56:26.222Z,5.70
2024-01-21T09:59:28.908Z,4.43
2024-01-21T10:02:31.971Z,4.67
2024-01-21T10:05:34.232Z,5.53
2024-01-21T10:08:47.204Z,3.85
2024-01-21T10:11:59.393Z,4.90
2024-01-21T10:15:03.521Z,4.38
2024-01-21T10:18:06.793Z,5.93
2024-01-21T10:21:10.495Z,3.72
2024-01-21T10:24:12.735Z,4.27
2024-01-21T10:27:16.973Z,4.18
2024-01-21T10:30:19.843Z,3.47
2024-01-21T10:33:22.383Z,5.20
2024-01-21T10:36:27.616Z,3.15
2024-01-21T10:39:32.555Z,3.95
2024-01-21T10:42:36.337Z,5.35
2024-01-21T10:45:38.690Z,5.28
2024-01-21T10:48:42.689Z,6.25
2024-01-21T10:51:46.482Z,4.80
2024-01-21T10:54:49.378Z,5.10
2024-01-21T10:57:52.313Z,3.88
2024-01-21T11:00:59.036Z,4.75
2024-01-21T11:04:08.428Z,5.30
2024-01-21T11:07:14.993Z,4.60
2024-01-21T11:10:19.605Z,3.35
2024-01-21T11:13:50.808Z,2.58
2024-01-21T11:16:55.598Z,4.20
2024-01-21T11:19:58.144Z,4.45
2024-01-21T11:23:03.406Z,3.95
2024-01-21T11:26:06.152Z,4.17
2024-01-21T11:29:32.065Z,5.40
2024-01-21T11:32:34.795Z,5.15
2024-01-21T11:35:38.070Z,4.17
2024-01-21T11:38:41.871Z,6.82
2024-01-21T11:41:45.378Z,5.57
2024-01-21T11:44:47.680Z,5.60
2024-01-21T11:47:59.381Z,6.40
2024-01-21T11:51:01.943Z,5.50
2024-01-21T11:54:04.692Z,5.00
2024-01-21T11:57:08.692Z,6.40
2024-01-21T12:00:12.767Z,7.45
2024-01-21T12:03:35.696Z,6.43
2024-01-21T12:06:41.444Z,6.87
2024-01-21T12:09:49.411Z,5.45
2024-01-21T12:12:54.303Z,5.85
2024-01-21T12:15:56.543Z,5.78
2024-01-21T12:18:59.049Z,5.45
2024-01-21T12:22:01.416Z,7.32
2024-01-21T12:25:04.848Z,5.57
2024-01-21T12:28:07.004Z,7.60
2024-01-21T12:31:12.291Z,5.47
2024-01-21T12:34:15.503Z,6.10
2024-01-21T12:37:19.118Z,6.87
2024-01-21T12:40:22.817Z,5.13
2024-01-21T12:43:25.159Z,8.75
2024-01-21T12:46:27.508Z,8.48
2024-01-21T12:49:29.840Z,7.20
2024-01-21T12:52:32.241Z,8.00
2024-01-21T12:55:34.554Z,5.88
2024-01-21T12:58:37.933Z,8.77
2024-01-21T13:01:40.092Z,6.90
2024-01-21T13:04:42.695Z,6.07
2024-01-21T13:07:45.095Z,5.60
2024-01-21T13:10:47.534Z,5.85
2024-01-21T13:13:49.837Z,7.82
2024-01-21T13:16:52.456Z,9.07
2024-01-21T13:19:55.106Z,6.78
2024-01-21T13:22:57.625Z,7.70
2024-01-21T13:26:00.257Z,6.85
2024-01-21T13:29:08.683Z,6.77
2024-01-21T13:32:11.104Z,6.90
2024-01-21T13:35:14.035Z,7.72
2024-01-21T13:38:27.616Z,6.80
2024-01-21T13:41:30.058Z,5.85
2024-01-21T13:44:35.081Z,7.28
2024-01-21T13:47:37.465Z,7.28
2024-01-21T13:50:44.441Z,6.45
2024-01-21T13:53:49.234Z,6.72
2024-01-21T13:56:51.666Z,6.45
2024-01-21T13:59:53.760Z,5.33
2024-01-21T14:02:57.032Z,6.85
2024-01-21T14:06:00.531Z,5.22
2024-01-21T14:09:02.791Z,7.10
2024-01-21T14:12:05.491Z,7.45
2024-01-21T14:15:08.115Z,5.13
2024-01-21T14:18:10.843Z,6.43
2024-01-21T14:21:13.842Z,7.50
2024-01-21T14:24:16.015Z,6.13
2024-01-21T14:27:18.852Z,5.78
2024-01-21T14:30:35.479Z,8.63
2024-01-21T14:33:38.946Z,7.97
2024-01-21T14:36:43.491Z,7.57
2024-01-21T14:39:46.421Z,6.13
2024-01-21T14:42:48.968Z,7.95
2024-01-21T14:45:51.284Z,10.02
2024-01-21T14:48:53.918Z,11.07
2024-01-21T14:51:56.312Z,9.90
2024-01-21T14:54:58.867Z,10.20
2024-01-21T14:58:02.896Z,9.77
2024-01-21T15:01:05.744Z,7.93
2024-01-21T15:04:08.285Z,9.77
2024-01-21T15:07:11.174Z,7.88
2024-01-21T15:10:13.806Z,8.63
2024-01-21T15:13:27.186Z,10.70
2024-01-21T15:16:29.347Z,11.43
2024-01-21T15:19:32.654Z,13.38
2024-01-21T15:22:35.018Z,6.28
2024-01-21T15:25:37.260Z,9.80
2024-01-21T15:28:39.392Z,14.18
2024-01-21T15:31:44.576Z,10.70
2024-01-21T15:34:48.006Z,8.60
2024-01-21T15:37:51.424Z,8.13
2024-01-21T15:40:53.551Z,8.43
2024-01-21T15:43:55.936Z,5.45
2024-01-21T15:46:58.037Z,3.95
2024-01-21T15:50:00.192Z,5.50
2024-01-21T15:53:02.422Z,5.40
2024-01-21T15:56:04.843Z,6.68
2024-01-21T15:59:07.085Z,8.02
2024-01-21T16:02:19.639Z,7.33
2024-01-21T16:05:26.326Z,7.65
2024-01-21T16:08:28.722Z,4.05
2024-01-21T16:11:32.191Z,6.43
2024-01-21T16:14:34.762Z,5.68
2024-01-21T16:17:37.185Z,6.13
2024-01-21T16:20:40.986Z,7.65
2024-01-21T16:23:44.162Z,6.10
2024-01-21T16:26:46.939Z,7.07
2024-01-21T16:29:49.211Z,5.10
2024-01-21T16:32:51.638Z,6.17
2024-01-21T16:35:54.042Z,7.53
2024-01-21T16:38:56.332Z,5.75
2024-01-21T16:41:58.525Z,7.87
2024-01-21T16:45:02.082Z,9.45
2024-01-21T16:48:04.747Z,9.75
2024-01-21T16:51:11.201Z,9.48
2024-01-21T16:54:14.452Z,8.32
2024-01-21T16:57:17.122Z,8.48
2024-01-21T17:00:23.860Z,9.05
2024-01-21T17:03:29.994Z,7.00
2024-01-21T17:06:32.834Z,8.18
2024-01-21T17:09:35.381Z,7.55
2024-01-21T17:12:40.054Z,9.00
2024-01-21T17:15:45.203Z,6.50
2024-01-21T17:19:00.024Z,7.53
2024-01-21T17:22:02.541Z,8.25
2024-01-21T17:25:06.135Z,7.63
2024-01-21T17:28:08.887Z,8.95
2024-01-21T17:31:11.285Z,8.35
2024-01-21T17:34:15.016Z,11.37
2024-01-21T17:37:18.921Z,8.23
2024-01-21T17:40:21.262Z,7.88
2024-01-21T17:43:23.633Z,8.70
2024-01-21T17:46:26.137Z,7.90
2024-01-21T17:49:30.362Z,8.57
2024-01-21T17:52:33.359Z,7.65
2024-01-21T17:55:35.901Z,6.93
2024-01-21T17:58:38.211Z,8.48
2024-01-21T18:01:42.271Z,7.72
2024-01-21T18:04:45.483Z,8.77
2024-01-21T18:07:48.609Z,7.97
2024-01-21T18:10:52.424Z,5.93
2024-01-21T18:13:54.588Z,5.00
2024-01-21T18:16:56.781Z,7.80
2024-01-21T18:19:59.214Z,5.53
2024-01-21T18:23:13.071Z,7.57
2024-01-21T18:26:35.598Z,7.65
2024-01-21T18:29:37.912Z,6.82
2024-01-21T18:32:40.307Z,9.02
2024-01-21T18:35:44.928Z,10.00
2024-01-21T18:38:47.886Z,9.48
2024-01-21T18:41:50.447Z,9.02
2024-01-21T18:44:52.975Z,9.73
2024-01-21T18:47:56.464Z,14.27
2024-01-21T18:50:59.249Z,10.18
2024-01-21T18:54:01.559Z,8.75
2024-01-21T18:57:06.504Z,7.20
2024-01-21T19:00:09.933Z,6.85
2024-01-21T19:03:13.318Z,6.35
2024-01-21T19:06:20.170Z,6.37
2024-01-21T19:09:24.504Z,7.13
2024-01-21T19:12:27.486Z,4.72
2024-01-21T19:15:31.130Z,4.60
2024-01-21T19:18:34.007Z,6.30
2024-01-21T19:21:37.819Z,6.57
2024-01-21T19:24:41.802Z,6.60
2024-01-21T19:27:44.632Z,8.18
2024-01-21T19:30:47.665Z,7.82
2024-01-21T19:33:52.996Z,6.78
2024-01-21T19:36:55.946Z,9.70
2024-01-21T19:39:58.947Z,7.95
2024-01-21T19:43:01.917Z,9.25
2024-01-21T19:46:06.652Z,6.90
2024-01-21T19:49:10.189Z,11.13
2024-01-21T19:52:13.498Z,8.95
2024-01-21T19:55:15.979Z,7.88
2024-01-21T19:58:18.342Z,10.00
2024-01-21T20:01:20.808Z,13.30
2024-01-21T20:04:23.936Z,12.50
2024-01-21T20:07:26.649Z,14.20
2024-01-21T20:10:29.277Z,13.90
2024-01-21T20:13:34.486Z,17.70
2024-01-21T20:16:38.042Z,21.40
2024-01-21T20:19:41.107Z,23.42
2024-01-21T20:22:43.563Z,21.30
2024-01-21T20:25:46.380Z,16.65
2024-01-21T20:28:48.913Z,14.35
2024-01-21T20:31:51.161Z,11.23
2024-01-21T20:34:55.082Z,8.43
2024-01-21T20:37:59.052Z,7.10
2024-01-21T20:41:01.649Z,12.35
2024-01-21T20:44:04.682Z,8.80
2024-01-21T20:47:07.522Z,10.33
2024-01-21T20:50:11.824Z,8.38
2024-01-21T20:53:14.456Z,8.77
2024-01-21T20:56:17.722Z,7.00
2024-01-21T20:59:20.433Z,9.35
2024-01-21T21:02:22.891Z,9.00
2024-01-21T21:05:29.593Z,8.82
2024-01-21T21:08:35.638Z,6.97
2024-01-21T21:11:38.061Z,9.20
2024-01-21T21:14:44.507Z,5.80
2024-01-21T21:17:47.009Z,10.57
2024-01-21T21:20:49.422Z,8.68
2024-01-21T21:23:51.852Z,9.88
2024-01-21T21:26:54.328Z,9.55
2024-01-21T21:29:56.701Z,8.93
2024-01-21T21:33:02.707Z,9.70
2024-01-21T21:36:05.663Z,8.27
2024-01-21T21:39:07.959Z,7.37
2024-01-21T21:42:10.487Z,7.90
2024-01-21T21:45:15.148Z,8.93
2024-01-21T21:48:18.380Z,7.30
2024-01-21T21:51:23.028Z,8.85
2024-01-21T21:54:27.539Z,9.63
2024-01-21T21:57:31.053Z,9.07
2024-01-21T22:00:35.756Z,7.93
2024-01-21T22:03:39.003Z,6.35
2024-01-21T22:06:42.216Z,5.63
2024-01-21T22:09:44.612Z,8.50
2024-01-21T22:12:47.136Z,7.80
2024-01-21T22:15:49.562Z,6.10
2024-01-21T22:18:51.871Z,9.67
2024-01-21T22:21:54.158Z,10.32
2024-01-21T22:24:56.428Z,7.47
2024-01-21T22:27:59.165Z,7.53
2024-01-21T22:31:01.573Z,13.20
2024-01-21T22:34:06.548Z,9.50
2024-01-21T22:37:09.185Z,10.48
2024-01-21T22:40:12.594Z,10.27
2024-01-21T22:43:14.835Z,10.57
2024-01-21T22:46:18.339Z,9.93
2024-01-21T22:49:21.025Z,8.50
2024-01-21T22:52:24.455Z,9.50
2024-01-21T22:55:26.816Z,8.32
2024-01-21T22:58:29.620Z,7.95
2024-01-21T23:01:32.046Z,6.72
2024-01-21T23:04:34.466Z,7.00
2024-01-21T23:07:36.895Z,6.82
2024-01-21T23:10:39.737Z,6.57
2024-01-21T23:13:42.675Z,4.95
2024-01-21T23:16:46.204Z,5.35
2024-01-21T23:19:48.885Z,7.87
2024-01-21T23:22:51.177Z,6.53
2024-01-21T23:25:53.550Z,6.95
2024-01-21T23:28:56.078Z,6.90
2024-01-21T23:31:58.410Z,4.65
2024-01-21T23:35:00.928Z,5.32
2024-01-21T23:38:04.023Z,5.57
2024-01-21T23:41:07.633Z,5.10
2024-01-21T23:44:09.868Z,4.15
2024-01-21T23:47:12.209Z,5.38
2024-01-21T23:50:14.603Z,5.10
2024-01-21T23:53:18.803Z,5.35
2024-01-21T23:56:20.945Z,4.70
2024-01-21T23:59:23.217Z,5.10
